Time;durP1;ratioP1;P1;durP2;ratioP2;P2;SDS_P1;SDS_P2;PMS_P1;PMS_P2;Temp;Humidity;BMP_temperature;BMP_pressure;BME280_temperature;BME280_humidity;BME280_pressure;Samples;Min_cycle;Max_cycle;Signal;HPM_P1;HPM_P2
2023/12/30 00:00:10;;;;;;;1.58;1.23;;;;;;;7.97;100.00;92893.63;2102785;28;20480;-79
2023/12/30 00:01:11;;;;;;;1.90;1.52;;;;;;;7.96;100.00;92887.56;2097670;28;20517;-78
2023/12/30 00:02:12;;;;;;;2.08;1.42;;;;;;;8.09;100.00;92885.09;2115860;27;20024;-79
2023/12/30 00:03:13;;;;;;;1.92;1.30;;;;;;;7.96;100.00;92892.88;2116111;27;20019;-80
2023/12/30 00:04:14;;;;;;;1.40;1.30;;;;;;;8.04;100.00;92886.31;2113858;28;20078;-79
2023/12/30 00:05:16;;;;;;;3.03;1.27;;;;;;;7.95;100.00;92887.97;2114959;28;20039;-81
2023/12/30 00:06:18;;;;;;;1.58;1.25;;;;;;;7.97;100.00;92894.38;2114033;28;20484;-80
2023/12/30 00:07:19;;;;;;;1.73;1.50;;;;;;;7.83;100.00;92891.94;2110707;28;20022;-81
2023/12/30 00:08:20;;;;;;;2.30;1.60;;;;;;;8.11;100.00;92884.66;2097894;28;20082;-80
2023/12/30 00:09:21;;;;;;;1.65;1.55;;;;;;;8.18;100.00;92892.56;2096282;28;20115;-77
2023/12/30 00:10:22;;;;;;;1.67;1.40;;;;;;;7.90;100.00;92891.84;2114469;28;20016;-79
2023/12/30 00:11:23;;;;;;;1.73;1.33;;;;;;;7.83;100.00;92900.69;2105521;28;20024;-79
2023/12/30 00:12:24;;;;;;;1.50;1.40;;;;;;;7.92;100.00;92897.50;2105105;28;20467;-80
2023/12/30 00:13:26;;;;;;;1.92;1.60;;;;;;;7.97;100.00;92905.03;2115185;28;20054;-80
2023/12/30 00:14:27;;;;;;;4.18;1.45;;;;;;;7.78;100.00;92900.38;2113927;28;20061;-80
2023/12/30 00:15:27;;;;;;;2.08;1.70;;;;;;;7.71;100.00;92903.16;2113496;28;20034;-82
2023/12/30 00:16:29;;;;;;;1.48;1.38;;;;;;;7.70;100.00;92905.06;2114873;28;20114;-79
2023/12/30 00:17:29;;;;;;;1.73;1.40;;;;;;;7.92;100.00;92904.75;2113782;28;20023;-78
2023/12/30 00:18:30;;;;;;;1.77;1.35;;;;;;;7.96;100.00;92900.13;2113038;28;20085;-79
2023/12/30 00:19:34;;;;;;;2.80;1.55;;;;;;;7.93;100.00;92909.66;2112777;28;20023;-79
2023/12/30 00:20:35;;;;;;;2.60;1.55;;;;;;;7.75;100.00;92911.84;2113664;28;20036;-80
2023/12/30 00:21:36;;;;;;;2.40;1.75;;;;;;;7.56;100.00;92913.25;2112845;28;20027;-82
2023/12/30 00:22:37;;;;;;;2.50;1.95;;;;;;;7.69;100.00;92910.78;2106260;28;20028;-81
2023/12/30 00:23:42;;;;;;;2.67;1.50;;;;;;;7.79;100.00;92904.56;2095964;28;20029;-80
2023/12/30 00:24:43;;;;;;;2.50;1.50;;;;;;;7.69;100.00;92913.44;2105206;28;20079;-78
2023/12/30 00:25:44;;;;;;;2.33;1.60;;;;;;;7.81;100.00;92903.00;2107165;27;20472;-79
2023/12/30 00:26:45;;;;;;;3.20;1.60;;;;;;;7.81;100.00;92899.56;2112955;27;20058;-79
2023/12/30 00:27:49;;;;;;;1.85;1.58;;;;;;;7.77;100.00;92896.19;2113882;27;20076;-79
2023/12/30 00:28:50;;;;;;;1.27;1.17;;;;;;;7.86;100.00;92898.34;2099308;28;20077;-79
2023/12/30 00:29:51;;;;;;;1.90;1.50;;;;;;;8.04;100.00;92896.94;2105746;28;20059;-80
2023/12/30 00:30:52;;;;;;;2.00;1.70;;;;;;;7.88;100.00;92901.38;2111948;27;20031;-80
2023/12/30 00:31:53;;;;;;;2.92;1.48;;;;;;;7.86;100.00;92903.69;2114861;27;20051;-79
2023/12/30 00:32:54;;;;;;;2.90;1.30;;;;;;;7.84;100.00;92901.44;2106460;28;20027;-81
2023/12/30 00:33:57;;;;;;;4.10;1.52;;;;;;;7.73;100.00;92898.19;2104978;28;20016;-79
2023/12/30 00:34:58;;;;;;;2.83;1.42;;;;;;;7.58;100.00;92901.03;2098321;28;20047;-81
2023/12/30 00:36:03;;;;;;;2.03;1.42;;;;;;;7.76;100.00;92908.75;2103790;28;20028;-80
2023/12/30 00:37:04;;;;;;;2.10;1.60;;;;;;;7.69;100.00;92916.09;2122121;27;20050;-79
2023/12/30 00:38:04;;;;;;;2.78;1.17;;;;;;;7.80;100.00;92912.13;2111653;28;20051;-80
2023/12/30 00:39:06;;;;;;;2.17;1.42;;;;;;;7.62;100.00;92916.19;2105174;28;20028;-79
2023/12/30 00:40:08;;;;;;;3.63;1.52;;;;;;;7.58;100.00;92917.00;2096985;28;20327;-80
2023/12/30 00:41:09;;;;;;;2.83;1.42;;;;;;;7.55;100.00;92919.69;2098101;28;20036;-80
2023/12/30 00:42:10;;;;;;;2.03;1.40;;;;;;;7.50;100.00;92928.13;2104845;28;20362;-79
2023/12/30 00:43:11;;;;;;;2.22;1.15;;;;;;;7.51;100.00;92919.75;2095302;28;20149;-80
2023/12/30 00:44:11;;;;;;;1.90;1.65;;;;;;;7.29;100.00;92916.63;2104659;28;20031;-80
2023/12/30 00:45:12;;;;;;;1.27;1.17;;;;;;;7.42;100.00;92919.50;2113177;28;20094;-80
2023/12/30 00:46:13;;;;;;;2.15;1.20;;;;;;;7.33;100.00;92927.19;2109257;28;20666;-78
2023/12/30 00:47:15;;;;;;;4.05;1.58;;;;;;;7.62;100.00;92916.94;2105751;28;20036;-80
2023/12/30 00:48:15;;;;;;;1.45;1.23;;;;;;;7.68;100.00;92927.88;2096731;28;20024;-79
2023/12/30 00:49:17;;;;;;;1.30;1.20;;;;;;;7.76;100.00;92926.63;2097164;28;20025;-81
2023/12/30 00:50:18;;;;;;;1.90;1.30;;;;;;;7.72;100.00;92920.59;2114291;28;20236;-80
2023/12/30 00:51:18;;;;;;;1.95;1.20;;;;;;;7.70;100.00;92933.56;2104928;28;20077;-81
2023/12/30 00:52:19;;;;;;;1.55;1.10;;;;;;;7.43;100.00;92928.97;2100796;28;20453;-80
2023/12/30 00:53:21;;;;;;;1.88;1.40;;;;;;;7.43;100.00;92934.31;2113237;28;20023;-81
2023/12/30 00:54:22;;;;;;;1.65;1.27;;;;;;;7.32;100.00;92937.06;2114977;27;20032;-78
2023/12/30 00:55:23;;;;;;;1.38;1.27;;;;;;;7.40;100.00;92932.44;2111808;28;20363;-77
2023/12/30 00:56:24;;;;;;;4.28;1.50;;;;;;;7.43;100.00;92933.56;2111432;28;20539;-79
2023/12/30 00:57:25;;;;;;;1.88;1.00;;;;;;;7.24;100.00;92937.56;2111943;27;20205;-80
2023/12/30 00:58:25;;;;;;;3.00;1.30;;;;;;;7.00;100.00;92942.78;2114952;27;20392;-83
2023/12/30 00:59:27;;;;;;;3.17;1.40;;;;;;;7.27;100.00;92932.22;2113208;28;20449;-81
2023/12/30 01:00:28;;;;;;;1.63;1.27;;;;;;;7.30;100.00;92928.75;2104624;28;20520;-80
2023/12/30 01:01:28;;;;;;;2.65;1.08;;;;;;;7.42;100.00;92934.69;2103274;28;20027;-80
2023/12/30 01:02:29;;;;;;;1.38;1.23;;;;;;;7.34;100.00;92935.94;2104659;28;20028;-77
2023/12/30 01:03:30;;;;;;;1.60;1.17;;;;;;;7.37;100.00;92930.56;2108910;28;20381;-79
2023/12/30 01:04:31;;;;;;;3.10;1.38;;;;;;;7.81;100.00;92936.81;2114549;28;20028;-79
2023/12/30 01:05:32;;;;;;;4.05;1.40;;;;;;;7.64;100.00;92921.84;2105903;28;20050;-81
2023/12/30 01:06:33;;;;;;;1.83;1.25;;;;;;;7.40;100.00;92929.78;2100221;28;20033;-81
2023/12/30 01:07:34;;;;;;;2.33;1.15;;;;;;;7.44;100.00;92941.13;2103342;28;20035;-80
2023/12/30 01:08:35;;;;;;;1.98;1.10;;;;;;;7.38;100.00;92934.75;2100990;28;20087;-79
2023/12/30 01:09:36;;;;;;;3.13;1.00;;;;;;;7.45;100.00;92945.28;2104367;28;20016;-79
2023/12/30 01:10:38;;;;;;;1.50;1.10;;;;;;;7.37;100.00;92932.47;2114227;28;20027;-80
2023/12/30 01:11:39;;;;;;;2.72;1.20;;;;;;;7.51;100.00;92942.94;2113192;28;20146;-80
2023/12/30 01:12:40;;;;;;;2.55;1.20;;;;;;;7.40;100.00;92943.06;2113256;28;20801;-82
2023/12/30 01:13:41;;;;;;;1.17;1.00;;;;;;;7.31;100.00;92940.91;2105853;28;20024;-81
2023/12/30 01:14:41;;;;;;;1.75;1.10;;;;;;;7.26;100.00;92944.00;2105033;28;20519;-78
2023/12/30 01:15:42;;;;;;;1.35;1.25;;;;;;;7.59;100.00;92949.66;2113188;28;20039;-79
2023/12/30 01:16:43;;;;;;;2.17;1.17;;;;;;;7.42;100.00;92951.41;2106014;28;20032;-80
2023/12/30 01:17:44;;;;;;;1.63;1.20;;;;;;;7.46;100.00;92960.09;2113258;28;20027;-80
2023/12/30 01:18:45;;;;;;;2.55;1.30;;;;;;;7.40;100.00;92951.03;2113283;28;20027;-77
2023/12/30 01:19:46;;;;;;;1.52;1.00;;;;;;;7.30;100.00;92949.28;2103703;28;20043;-82
2023/12/30 01:20:47;;;;;;;2.08;0.98;;;;;;;7.34;100.00;92951.91;2096302;28;20039;-77
2023/12/30 01:21:48;;;;;;;4.45;1.35;;;;;;;7.33;100.00;92953.78;2112393;28;20035;-78
2023/12/30 01:22:49;;;;;;;2.17;1.00;;;;;;;7.22;100.00;92961.16;2114310;28;20031;-82
2023/12/30 01:23:50;;;;;;;3.72;1.15;;;;;;;7.23;100.00;92947.44;2111047;27;20030;-81
2023/12/30 01:24:51;;;;;;;1.15;1.02;;;;;;;7.27;100.00;92952.72;2113986;27;20043;-82
2023/12/30 01:25:52;;;;;;;1.60;1.15;;;;;;;7.03;100.00;92965.16;2122158;27;20125;-80
2023/12/30 01:26:53;;;;;;;4.43;1.10;;;;;;;7.17;100.00;92956.28;2108670;28;20032;-79
2023/12/30 01:27:54;;;;;;;1.20;1.10;;;;;;;7.16;100.00;92957.44;2105900;28;20469;-78
2023/12/30 01:28:55;;;;;;;1.30;1.00;;;;;;;6.97;100.00;92959.50;2116660;27;20023;-80
2023/12/30 01:29:56;;;;;;;2.92;1.02;;;;;;;7.22;100.00;92959.22;2109590;27;20024;-79
2023/12/30 01:30:56;;;;;;;2.30;1.10;;;;;;;7.17;100.00;92966.91;2110987;27;20519;-81
2023/12/30 01:31:57;;;;;;;1.88;1.05;;;;;;;7.23;100.00;92968.72;2107599;28;20036;-79
2023/12/30 01:32:58;;;;;;;1.77;1.10;;;;;;;7.48;100.00;92968.44;2107753;28;20028;-80
2023/12/30 01:33:59;;;;;;;1.35;1.20;;;;;;;7.56;100.00;92961.13;2113199;27;20027;-78
2023/12/30 01:35:00;;;;;;;1.55;1.00;;;;;;;7.68;100.00;92955.25;2113932;27;20028;-78
2023/12/30 01:36:01;;;;;;;1.38;1.00;;;;;;;7.72;100.00;92971.91;2117832;27;20023;-81
2023/12/30 01:37:02;;;;;;;2.47;0.98;;;;;;;7.57;100.00;92957.28;2104491;28;20028;-80
2023/12/30 01:38:03;;;;;;;1.23;1.00;;;;;;;7.59;100.00;92954.97;2097343;28;20032;-80
2023/12/30 01:39:04;;;;;;;2.92;1.10;;;;;;;7.80;100.00;92965.34;2113136;28;20031;-78
2023/12/30 01:40:18;;;;;;;1.30;0.82;;;;;;;7.55;100.00;92964.91;2113694;28;20035;-78
2023/12/30 01:41:19;;;;;;;2.22;0.98;;;;;;;7.54;100.00;92958.09;2114570;28;20429;-78
2023/12/30 01:42:20;;;;;;;1.33;0.88;;;;;;;7.66;100.00;92964.78;2104443;28;20027;-80
2023/12/30 01:43:25;;;;;;;1.30;0.95;;;;;;;7.71;100.00;92957.09;2099398;28;20031;-79
2023/12/30 01:44:26;;;;;;;1.13;0.80;;;;;;;7.71;100.00;92967.75;2112564;28;20034;-81
2023/12/30 01:45:27;;;;;;;1.73;1.10;;;;;;;7.57;100.00;92976.66;2112535;28;20054;-79
2023/12/30 01:46:28;;;;;;;2.38;1.05;;;;;;;7.58;100.00;92966.78;2113631;28;20031;-80
2023/12/30 01:47:29;;;;;;;1.38;1.02;;;;;;;7.51;100.00;92975.63;2104804;28;20107;-79
2023/12/30 01:48:31;;;;;;;1.23;0.90;;;;;;;7.56;100.00;92980.47;2108804;28;20020;-80
2023/12/30 01:49:32;;;;;;;1.35;0.90;;;;;;;7.59;100.00;92976.25;2113829;28;20019;-78
2023/12/30 01:50:32;;;;;;;2.55;0.90;;;;;;;7.52;100.00;92963.81;2113431;28;20030;-77
2023/12/30 01:51:34;;;;;;;3.00;0.88;;;;;;;7.61;100.00;92967.91;2104465;28;20032;-80
2023/12/30 01:52:36;;;;;;;2.85;0.90;;;;;;;7.47;100.00;92971.50;2097143;28;20031;-79
2023/12/30 01:53:40;;;;;;;1.13;0.93;;;;;;;7.67;100.00;92974.25;2095643;28;20025;-79
2023/12/30 01:54:42;;;;;;;1.35;0.88;;;;;;;7.78;100.00;92965.00;2104205;28;20040;-80
2023/12/30 01:55:44;;;;;;;0.93;0.80;;;;;;;7.74;100.00;92964.28;2119024;27;20027;-78
2023/12/30 01:56:45;;;;;;;1.20;0.77;;;;;;;7.71;100.00;92967.75;2111222;27;20500;-79
2023/12/30 01:57:46;;;;;;;3.30;0.90;;;;;;;7.81;100.00;92966.88;2114840;27;20357;-80
2023/12/30 01:58:49;;;;;;;3.15;0.85;;;;;;;7.87;100.00;92959.19;2113410;28;20039;-78
2023/12/30 01:59:51;;;;;;;1.63;0.80;;;;;;;7.85;100.00;92966.78;2113095;28;20039;-79
2023/12/30 02:00:55;;;;;;;0.82;0.75;;;;;;;7.83;100.00;92969.13;2104103;28;20027;-78
2023/12/30 02:01:56;;;;;;;0.93;0.90;;;;;;;7.90;100.00;92970.91;2101392;28;20031;-83
2023/12/30 02:02:57;;;;;;;2.67;0.80;;;;;;;7.83;100.00;92961.13;2105708;28;20052;-81
2023/12/30 02:03:57;;;;;;;4.53;0.95;;;;;;;7.67;100.00;92974.25;2102167;28;20093;-80
2023/12/30 02:04:59;;;;;;;2.78;0.82;;;;;;;7.63;100.00;92970.91;2104789;28;20043;-79
2023/12/30 02:06:00;;;;;;;1.02;0.80;;;;;;;7.69;100.00;92974.63;2113035;27;20051;-79
2023/12/30 02:07:03;;;;;;;1.60;0.70;;;;;;;7.74;100.00;92971.53;2102968;28;20024;-78
2023/12/30 02:08:04;;;;;;;2.60;0.95;;;;;;;7.95;100.00;92968.56;2104570;28;20715;-79
2023/12/30 02:09:06;;;;;;;2.95;0.68;;;;;;;8.14;100.00;92969.06;2112010;28;20027;-80
2023/12/30 02:10:08;;;;;;;2.28;0.95;;;;;;;8.04;100.00;92966.16;2112725;28;20032;-80
2023/12/30 02:11:10;;;;;;;1.90;0.95;;;;;;;7.98;100.00;92967.00;2114357;28;20088;-80
2023/12/30 02:12:11;;;;;;;1.25;0.50;;;;;;;8.02;100.00;92975.69;2112852;28;20023;-78
2023/12/30 02:13:12;;;;;;;2.83;1.02;;;;;;;8.19;100.00;92966.69;2112905;28;20400;-81
2023/12/30 02:14:27;;;;;;;2.08;0.85;;;;;;;8.13;100.00;92962.97;2105419;28;20423;-80
2023/12/30 02:15:28;;;;;;;0.70;0.70;;;;;;;8.08;100.00;92969.50;2113025;28;20483;-79
2023/12/30 02:16:29;;;;;;;2.05;0.82;;;;;;;7.92;100.00;92964.03;2113668;28;20027;-79
2023/12/30 02:17:30;;;;;;;0.70;0.68;;;;;;;7.89;100.00;92966.75;2113015;28;20576;-80
2023/12/30 02:18:31;;;;;;;0.55;0.55;;;;;;;7.86;100.00;92978.19;2112193;28;20022;-81
2023/12/30 02:19:33;;;;;;;2.30;0.60;;;;;;;8.01;100.00;92958.97;2103286;28;20481;-78
2023/12/30 02:20:34;;;;;;;4.18;0.80;;;;;;;8.23;100.00;92963.97;2104799;28;20031;-82
2023/12/30 02:21:41;;;;;;;2.10;0.98;;;;;;;8.07;100.00;92949.34;2112062;28;20456;-79
2023/12/30 02:22:45;;;;;;;3.72;0.70;;;;;;;7.99;100.00;92953.31;2106299;28;20031;-81
2023/12/30 02:25:20;;;;;;;;;;;;;;;6.35;100.00;92957.06;2142365;27;20542;-81
2023/12/30 02:26:23;;;;;;;1.92;0.60;;;;;;;6.34;100.00;92955.56;2129329;27;19911;-80
2023/12/30 02:27:23;;;;;;;1.73;0.60;;;;;;;6.53;100.00;92962.97;2127167;27;20054;-82
2023/12/30 02:28:24;;;;;;;0.70;0.60;;;;;;;6.72;100.00;92961.69;2123692;27;20030;-80
2023/12/30 02:29:25;;;;;;;1.48;0.80;;;;;;;6.66;100.00;92965.91;2122743;27;20038;-79
2023/12/30 02:30:26;;;;;;;2.58;0.80;;;;;;;6.73;100.00;92971.16;2126266;27;20082;-80
2023/12/30 02:31:27;;;;;;;3.65;0.70;;;;;;;6.77;100.00;92979.84;2135869;27;20027;-80
2023/12/30 02:32:28;;;;;;;3.92;0.80;;;;;;;6.65;100.00;92964.41;2114542;27;20031;-80
2023/12/30 02:33:29;;;;;;;2.40;0.75;;;;;;;6.70;100.00;92961.31;2113025;28;20028;-80
2023/12/30 02:34:30;;;;;;;2.25;0.60;;;;;;;6.80;100.00;92976.38;2120795;27;20023;-79
2023/12/30 02:35:31;;;;;;;1.15;0.52;;;;;;;6.89;100.00;92968.72;2128628;27;20032;-79
2023/12/30 02:36:32;;;;;;;3.00;0.60;;;;;;;6.80;100.00;92965.75;2130311;27;20023;-79
2023/12/30 02:37:33;;;;;;;3.13;0.77;;;;;;;6.80;100.00;92961.22;2136817;27;20029;-81
2023/12/30 02:38:34;;;;;;;2.67;0.70;;;;;;;6.94;100.00;92965.63;2130119;27;20031;-79
2023/12/30 02:39:35;;;;;;;3.63;0.73;;;;;;;6.86;100.00;92961.53;2142085;27;20534;-79
2023/12/30 02:40:36;;;;;;;4.18;0.82;;;;;;;6.90;100.00;92970.22;2129744;27;20019;-81
2023/12/30 02:41:37;;;;;;;1.15;0.60;;;;;;;6.86;100.00;92974.81;2136406;27;20483;-79
2023/12/30 02:42:39;;;;;;;2.85;0.68;;;;;;;6.83;100.00;92978.25;2128665;27;20043;-79
2023/12/30 02:44:01;;;;;;;2.13;0.57;;;;;;;6.91;100.00;92985.00;2131830;27;20035;-81
2023/12/30 02:45:03;;;;;;;4.35;0.65;;;;;;;6.82;100.00;92979.41;2130184;27;20042;-80
2023/12/30 02:46:04;;;;;;;2.88;0.68;;;;;;;7.05;100.00;92971.56;2131596;27;20590;-79
2023/12/30 02:47:05;;;;;;;3.45;0.60;;;;;;;6.95;100.00;92967.13;2138086;27;20038;-80
2023/12/30 02:48:06;;;;;;;1.85;0.70;;;;;;;6.86;100.00;92969.50;2119213;27;20046;-79
2023/12/30 02:49:07;;;;;;;2.88;0.70;;;;;;;6.86;100.00;92977.47;2113378;27;20106;-80
2023/12/30 02:50:09;;;;;;;1.73;0.55;;;;;;;6.90;100.00;92975.53;2115627;28;20027;-79
2023/12/30 02:51:14;;;;;;;1.77;0.55;;;;;;;6.92;100.00;92964.50;2013519;27;21369;-80
2023/12/30 02:52:15;;;;;;;0.98;0.40;;;;;;;7.08;100.00;92970.03;2049609;27;20556;-79
2023/12/30 02:53:16;;;;;;;1.52;0.60;;;;;;;7.25;100.00;92974.41;2055347;27;20080;-80
2023/12/30 02:54:17;;;;;;;0.50;0.50;;;;;;;7.18;100.00;92973.72;2046594;27;20120;-81
2023/12/30 02:55:18;;;;;;;2.88;0.60;;;;;;;7.14;100.00;92975.66;2041006;27;23586;-82
2023/12/30 02:56:24;;;;;;;2.13;0.50;;;;;;;7.21;100.00;92972.94;2044625;27;20090;-82
2023/12/30 02:57:25;;;;;;;0.70;0.55;;;;;;;7.16;100.00;92976.78;2050920;27;20161;-79
2023/12/30 02:58:26;;;;;;;1.25;0.60;;;;;;;7.14;100.00;92981.72;2061866;27;20494;-79
2023/12/30 02:59:27;;;;;;;1.58;0.50;;;;;;;7.05;100.00;92973.47;2061373;27;20054;-80
2023/12/30 03:00:28;;;;;;;0.80;0.52;;;;;;;7.08;100.00;92964.72;2050501;27;20028;-81
2023/12/30 03:01:32;;;;;;;2.40;0.85;;;;;;;7.09;100.00;92965.47;2045096;27;20407;-78
2023/12/30 03:02:33;;;;;;;2.47;0.70;;;;;;;7.06;100.00;92970.41;2062040;28;20469;-80
2023/12/30 03:03:34;;;;;;;3.17;0.60;;;;;;;7.14;100.00;92968.44;2065293;28;20032;-80
2023/12/30 03:04:34;;;;;;;1.30;0.50;;;;;;;7.08;100.00;92975.34;2080737;27;20032;-79
2023/12/30 03:05:35;;;;;;;2.75;1.00;;;;;;;7.11;100.00;92985.16;2066045;27;20403;-80
2023/12/30 03:06:36;;;;;;;1.50;0.60;;;;;;;7.14;100.00;92967.69;2067931;27;20613;-78
2023/12/30 03:07:37;;;;;;;1.42;0.88;;;;;;;7.12;100.00;92972.66;2097776;27;21989;-81
2023/12/30 03:08:38;;;;;;;1.48;0.60;;;;;;;7.04;100.00;92970.06;2105787;27;20035;-79
2023/12/30 03:09:39;;;;;;;1.88;0.63;;;;;;;6.94;100.00;92978.91;2125836;27;20049;-80
2023/12/30 03:10:40;;;;;;;2.72;0.75;;;;;;;6.94;100.00;92978.91;2133660;27;20030;-80
2023/12/30 03:11:42;;;;;;;2.05;0.65;;;;;;;6.85;100.00;92988.47;2123945;27;20107;-80
2023/12/30 03:12:43;;;;;;;2.50;0.65;;;;;;;6.85;100.00;92975.19;2120682;27;20031;-79
2023/12/30 03:13:44;;;;;;;2.58;0.70;;;;;;;7.16;100.00;92982.09;2124670;27;20028;-80
2023/12/30 03:14:44;;;;;;;1.77;0.80;;;;;;;7.02;100.00;92985.66;2124535;27;20390;-80
2023/12/30 03:15:45;;;;;;;0.90;0.70;;;;;;;6.88;100.00;92988.44;2132571;27;20023;-80
2023/12/30 03:16:46;;;;;;;0.65;0.60;;;;;;;6.84;100.00;92987.72;2142267;27;20031;-78
2023/12/30 03:17:49;;;;;;;1.15;0.60;;;;;;;6.76;100.00;92986.28;2140824;27;20083;-79
2023/12/30 03:18:49;;;;;;;3.55;0.90;;;;;;;6.45;100.00;92980.13;2121955;27;20096;-78
2023/12/30 03:19:50;;;;;;;1.45;0.65;;;;;;;6.51;100.00;92981.97;2114920;28;20039;-79
2023/12/30 03:20:51;;;;;;;1.52;0.70;;;;;;;6.54;100.00;92985.72;2108367;27;20066;-79
2023/12/30 03:21:53;;;;;;;2.80;0.80;;;;;;;6.57;100.00;92987.59;2123516;27;20038;-79
2023/12/30 03:22:54;;;;;;;1.48;0.50;;;;;;;6.47;100.00;92981.25;2075329;28;20083;-80
2023/12/30 03:23:55;;;;;;;2.13;0.88;;;;;;;6.45;100.00;92988.06;2024729;28;20138;-79
2023/12/30 03:24:56;;;;;;;1.25;0.70;;;;;;;6.45;100.00;92988.84;2027503;28;20675;-78
2023/12/30 03:25:57;;;;;;;1.10;0.70;;;;;;;6.44;100.00;92989.22;2023861;27;20035;-80
2023/12/30 03:27:00;;;;;;;1.30;0.77;;;;;;;6.59;100.00;92987.22;2019505;27;20046;-79
2023/12/30 03:28:01;;;;;;;1.05;0.70;;;;;;;6.56;100.00;92984.19;2051934;27;20073;-81
2023/12/30 03:29:02;;;;;;;2.38;1.00;;;;;;;6.44;100.00;92986.56;2055080;27;24235;-80
2023/12/30 03:30:04;;;;;;;1.45;0.63;;;;;;;6.48;100.00;92989.97;2055544;27;20255;-80
2023/12/30 03:31:07;;;;;;;2.03;0.68;;;;;;;6.51;100.00;92995.25;2044562;27;21528;-80
2023/12/30 03:32:07;;;;;;;1.35;0.90;;;;;;;6.46;100.00;92993.00;2059557;27;20031;-80
2023/12/30 03:33:08;;;;;;;2.55;0.80;;;;;;;6.41;100.00;92985.47;2066900;27;20027;-80
2023/12/30 03:34:09;;;;;;;2.83;0.90;;;;;;;6.56;100.00;92989.50;2068431;27;20503;-81
2023/12/30 03:35:10;;;;;;;3.83;1.60;;;;;;;6.43;100.00;92991.13;2072825;27;20465;-79
2023/12/30 03:36:11;;;;;;;0.63;0.63;;;;;;;6.51;100.00;92987.28;2072886;27;20023;-82
2023/12/30 03:37:12;;;;;;;0.70;0.70;;;;;;;6.44;100.00;92982.03;2075128;28;20069;-81
2023/12/30 03:38:13;;;;;;;1.85;0.70;;;;;;;6.52;100.00;92985.38;2085357;28;20086;-79
2023/12/30 03:39:14;;;;;;;1.20;0.82;;;;;;;6.53;100.00;92987.63;2071939;28;20559;-79
2023/12/30 03:40:16;;;;;;;0.95;0.80;;;;;;;6.43;100.00;92988.47;2086732;28;20023;-79
2023/12/30 03:41:17;;;;;;;3.25;0.93;;;;;;;6.39;100.00;92985.09;2095401;28;20043;-80
2023/12/30 03:42:18;;;;;;;3.05;0.80;;;;;;;6.39;100.00;92982.44;2100573;28;20016;-78
2023/12/30 03:43:19;;;;;;;2.78;1.02;;;;;;;6.44;100.00;92976.72;2107859;28;20445;-79
2023/12/30 03:44:20;;;;;;;1.83;1.00;;;;;;;6.33;100.00;92978.72;2117901;27;20433;-79
2023/12/30 03:45:23;;;;;;;4.18;0.90;;;;;;;6.33;100.00;92986.69;2116511;27;20034;-79
2023/12/30 03:46:24;;;;;;;1.50;0.70;;;;;;;6.33;100.00;92977.97;2118906;27;20026;-79
2023/12/30 03:47:25;;;;;;;1.92;0.80;;;;;;;6.26;100.00;92982.16;2109808;28;20034;-81
2023/12/30 03:48:26;;;;;;;1.27;0.82;;;;;;;6.43;100.00;92980.50;2109547;27;20039;-83
2023/12/30 03:49:27;;;;;;;2.05;0.80;;;;;;;6.64;100.00;92984.16;2106263;28;20035;-79
2023/12/30 03:50:28;;;;;;;4.63;0.70;;;;;;;6.77;100.00;92985.16;2110098;28;20020;-81
2023/12/30 03:51:29;;;;;;;1.73;0.82;;;;;;;6.72;100.00;92982.94;2117787;27;20404;-80
2023/12/30 03:52:29;;;;;;;1.35;1.00;;;;;;;6.72;100.00;92983.69;2118939;27;20031;-80
2023/12/30 03:53:30;;;;;;;2.25;0.80;;;;;;;6.60;100.00;92981.50;2114388;27;20092;-78
2023/12/30 03:54:32;;;;;;;1.73;0.80;;;;;;;6.46;100.00;92986.94;2118148;27;20027;-79
2023/12/30 03:55:33;;;;;;;1.10;0.80;;;;;;;6.49;100.00;92978.19;2116896;27;20038;-77
2023/12/30 03:56:39;;;;;;;0.90;0.60;;;;;;;6.37;100.00;92982.09;2115226;27;20020;-79
2023/12/30 03:57:40;;;;;;;0.80;0.80;;;;;;;6.64;100.00;92990.19;2118106;27;20061;-78
2023/12/30 03:58:41;;;;;;;1.73;1.02;;;;;;;6.60;100.00;92983.41;2119490;27;20062;-79
2023/12/30 03:59:42;;;;;;;1.48;1.00;;;;;;;6.60;100.00;92983.41;2117239;27;20042;-79
2023/12/30 04:00:43;;;;;;;1.45;0.90;;;;;;;6.60;100.00;92986.81;2117690;27;20751;-79
2023/12/30 04:01:44;;;;;;;1.10;0.82;;;;;;;6.79;100.00;92980.19;2117088;27;20032;-79
2023/12/30 04:02:47;;;;;;;1.20;1.10;;;;;;;6.73;100.00;92987.09;2108832;28;20149;-78
2023/12/30 04:03:47;;;;;;;2.15;0.90;;;;;;;6.77;100.00;92985.91;2111065;28;20024;-78
2023/12/30 04:04:48;;;;;;;1.02;0.93;;;;;;;6.89;100.00;92981.22;2102204;28;20036;-80
2023/12/30 04:05:50;;;;;;;2.15;0.95;;;;;;;6.85;100.00;92980.50;2100450;28;20126;-80
2023/12/30 04:06:51;;;;;;;1.00;0.90;;;;;;;6.70;100.00;92983.31;2099707;28;20062;-79
2023/12/30 04:07:52;;;;;;;1.30;1.02;;;;;;;6.73;100.00;92979.13;2116790;27;20069;-81
2023/12/30 04:08:53;;;;;;;1.02;0.93;;;;;;;6.75;100.00;92984.78;2115779;27;20039;-81
2023/12/30 04:09:54;;;;;;;1.05;0.90;;;;;;;6.81;100.00;92981.31;2109876;28;20439;-78
2023/12/30 04:10:55;;;;;;;2.67;0.93;;;;;;;7.30;100.00;92981.19;2110452;28;20020;-80
2023/12/30 04:11:56;;;;;;;2.00;1.08;;;;;;;7.30;100.00;92981.94;2105492;28;20541;-80
2023/12/30 04:12:57;;;;;;;1.90;0.88;;;;;;;7.63;100.00;92982.28;2116904;27;20053;-78
2023/12/30 04:13:58;;;;;;;1.00;0.90;;;;;;;7.26;100.00;92996.41;2119983;27;20080;-80
2023/12/30 04:14:58;;;;;;;1.88;1.10;;;;;;;7.15;100.00;92979.81;2121994;27;20027;-81
2023/12/30 04:15:59;;;;;;;1.17;1.05;;;;;;;7.09;100.00;92976.84;2117672;27;20432;-79
2023/12/30 04:17:01;;;;;;;2.92;1.10;;;;;;;7.05;100.00;92971.56;2119538;27;20113;-81
2023/12/30 04:18:02;;;;;;;1.35;0.90;;;;;;;7.27;100.00;92972.09;2118283;27;20073;-80
2023/12/30 04:19:03;;;;;;;1.95;1.10;;;;;;;7.27;100.00;92981.97;2116428;27;20027;-80
2023/12/30 04:20:05;;;;;;;1.10;1.00;;;;;;;7.21;100.00;92979.00;2117530;27;20041;-78
2023/12/30 04:21:06;;;;;;;1.40;0.77;;;;;;;7.46;100.00;92985.91;2117677;27;20019;-80
2023/12/30 04:22:07;;;;;;;4.07;1.05;;;;;;;7.17;100.00;92983.59;2117929;27;20380;-78
2023/12/30 04:23:08;;;;;;;1.88;0.90;;;;;;;7.22;100.00;92988.47;2115427;27;20023;-78
2023/12/30 04:24:09;;;;;;;2.78;1.27;;;;;;;7.05;100.00;92990.16;2108176;27;20023;-81
2023/12/30 04:25:10;;;;;;;2.08;0.80;;;;;;;7.20;100.00;92980.16;2107902;28;20126;-79
2023/12/30 04:26:11;;;;;;;3.72;1.17;;;;;;;7.14;100.00;92986.28;2107101;28;20369;-81
2023/12/30 04:27:12;;;;;;;2.08;0.85;;;;;;;7.04;100.00;92991.31;2104450;28;20464;-81
2023/12/30 04:28:12;;;;;;;2.45;1.00;;;;;;;6.86;100.00;92985.44;2115464;27;20027;-79
2023/12/30 04:29:13;;;;;;;3.28;1.10;;;;;;;6.89;100.00;92994.50;2117319;27;20039;-79
2023/12/30 04:30:14;;;;;;;2.45;1.20;;;;;;;6.92;100.00;92991.06;2117810;27;20024;-79
2023/12/30 04:31:15;;;;;;;1.20;1.05;;;;;;;6.93;100.00;92989.91;2116338;27;20028;-81
2023/12/30 04:32:16;;;;;;;2.95;1.30;;;;;;;6.96;100.00;92992.53;2116016;27;20015;-81
2023/12/30 04:33:17;;;;;;;1.42;0.90;;;;;;;6.89;100.00;92997.16;2116491;27;20696;-78
2023/12/30 04:34:18;;;;;;;1.20;1.00;;;;;;;6.84;100.00;92992.28;2117967;27;20028;-80
2023/12/30 04:35:19;;;;;;;3.17;1.05;;;;;;;6.87;100.00;92986.19;2102043;28;20485;-80
2023/12/30 04:36:20;;;;;;;0.98;0.98;;;;;;;6.72;100.00;92989.00;2095585;28;20024;-78
2023/12/30 04:37:21;;;;;;;1.77;1.10;;;;;;;6.76;100.00;92989.72;2109373;28;20027;-79
2023/12/30 04:38:22;;;;;;;2.90;1.40;;;;;;;6.75;100.00;92993.50;2118622;27;20472;-79
2023/12/30 04:39:23;;;;;;;3.17;1.17;;;;;;;6.88;100.00;92990.34;2117208;27;20026;-79
2023/12/30 04:40:24;;;;;;;2.30;1.15;;;;;;;6.88;100.00;92996.41;2119398;27;20019;-80
2023/12/30 04:41:25;;;;;;;2.08;1.23;;;;;;;6.86;100.00;92990.75;2113700;27;20031;-79
2023/12/30 04:42:26;;;;;;;2.10;1.05;;;;;;;6.79;100.00;92993.47;2102756;28;20028;-79
2023/12/30 04:43:27;;;;;;;3.05;1.10;;;;;;;6.86;100.00;92996.06;2111931;27;20035;-80
2023/12/30 04:44:28;;;;;;;2.13;1.30;;;;;;;6.83;100.00;92988.88;2118161;27;20467;-79
2023/12/30 04:45:29;;;;;;;1.98;1.17;;;;;;;6.86;100.00;92992.66;2116402;27;20027;-78
2023/12/30 04:46:31;;;;;;;5.20;1.25;;;;;;;6.83;100.00;93004.81;2109467;28;20046;-80
2023/12/30 04:47:32;;;;;;;2.03;1.23;;;;;;;6.80;100.00;92993.09;2117524;27;20039;-79
2023/12/30 04:48:33;;;;;;;2.88;1.10;;;;;;;6.79;100.00;92999.53;2117618;27;20092;-81
2023/12/30 04:49:34;;;;;;;2.10;1.20;;;;;;;6.71;100.00;92998.09;2118563;27;20468;-81
2023/12/30 04:50:35;;;;;;;2.97;1.20;;;;;;;6.75;100.00;92996.16;2109345;28;20032;-79